Date,TemperatureHighF,TemperatureAvgF,TemperatureLowF,DewpointHighF,DewpointAvgF,DewpointLowF,HumidityHigh,HumidityAvg,HumidityLow,PressureMaxIn,PressureMinIn,WindSpeedMaxMPH,WindSpeedAvgMPH,GustSpeedMaxMPH,PrecipitationSumIn
2013-1-1,76.5,63.9,54.3,62.2,56.0,52.3,95,78,47,30.01,29.82,6,1,6,0.00
2013-1-2,79.0,67.7,58.3,69.0,62.0,54.6,100,83,57,29.85,29.75,6,1,6,0.00
2013-1-3,70.3,63.3,57.0,67.0,61.5,54.4,100,94,83,29.98,29.82,19,5,19,0.04
2013-1-4,58.6,55.9,52.3,58.4,55.7,52.1,100,99,97,30.08,29.96,16,7,16,0.04
2013-1-5,71.8,60.4,50.0,59.9,54.3,47.1,97,81,61,30.11,29.98,13,4,13,0.00
2013-1-6,78.1,66.7,60.1,68.1,62.2,56.8,96,86,65,30.00,29.83,12,2,12,0.01
2013-1-7,68.5,60.9,52.9,59.8,55.9,48.5,100,84,67,30.02,29.91,17,6,17,0.04
2013-1-8,78.8,69.2,60.6,73.3,66.3,59.5,100,91,72,30.02,29.91,11,2,11,0.00
2013-1-9,80.4,72.5,67.5,73.7,69.4,67.2,100,91,73,30.09,29.98,7,1,7,0.00
2013-1-10,73.4,69.5,67.6,68.6,66.6,63.3,100,91,75,30.10,30.02,3,0,3,0.01
2013-1-11,80.6,71.5,67.6,65.0,64.0,59.7,86,78,49,30.05,29.93,5,1,5,0.01
2013-1-12,70.2,62.7,61.7,64.4,60.8,60.0,95,93,82,29.96,29.94,0,0,0,0.00
2013-1-13,64.4,61.9,61.9,60.2,60.2,60.2,94,94,94,29.96,29.89,0,0,0,0.00
2013-1-21,74.1,65.5,60.6,61.7,53.9,48.0,91,67,49,29.89,29.79,8,2,8,0.00
2013-1-22,61.0,57.0,52.3,48.0,34.7,18.9,63,45,21,30.05,29.85,14,6,14,0.00
2013-1-23,65.1,53.0,49.8,40.6,34.3,7.2,69,51,10,30.10,30.05,8,0,8,0.00
2013-1-24,70.2,57.8,48.7,44.1,41.5,37.3,80,58,31,30.11,29.99,12,3,12,0.00
2013-2-13,82.2,72.0,64.0,71.5,66.7,61.1,95,84,57,29.75,29.60,14,2,14,0.31
2013-2-14,65.7,63.8,56.3,63.9,62.2,54.5,96,94,93,29.79,29.70,5,0,5,0.17
2013-2-15,66.4,58.8,50.5,53.9,52.2,50.5,100,80,57,29.86,29.73,8,1,8,0.02
2013-2-16,63.1,55.8,51.6,53.2,37.7,18.1,93,57,24,29.79,29.70,17,5,17,0.00
2013-2-17,53.1,42.1,36.5,28.1,16.6,-4.4,58,38,10,30.16,29.79,11,2,11,0.00
2013-2-18,68.4,51.1,35.1,44.3,28.4,6.1,76,47,15,30.18,30.02,13,1,13,0.00
2013-2-19,77.9,63.1,48.9,57.6,47.7,40.0,88,62,27,30.03,29.82,11,1,11,0.00
2013-2-20,73.0,63.5,55.4,59.9,51.4,44.5,94,67,42,29.94,29.80,15,3,15,0.00
2013-2-21,82.6,66.9,54.0,62.6,55.3,48.4,89,70,32,29.92,29.75,6,1,6,0.00
2013-2-22,86.4,73.4,62.2,70.1,62.5,50.4,97,73,32,29.87,29.74,10,1,10,0.00
2013-2-23,87.8,75.8,69.3,70.9,64.5,50.4,96,72,30,29.78,29.63,9,2,9,0.00
2013-2-24,78.4,71.7,66.7,71.4,67.9,62.8,96,88,75,29.73,29.64,7,1,7,0.07
2013-2-25,84.6,72.9,65.3,73.0,65.9,60.7,97,81,47,29.71,29.52,8,1,8,0.00
2013-2-26,78.1,70.9,65.5,73.4,66.8,57.8,100,87,56,29.64,29.49,13,2,13,0.41
2013-2-27,73.4,64.9,57.4,62.2,49.9,37.7,90,62,28,29.76,29.63,14,5,14,0.00
2013-2-28,57.4,56.5,56.1,49.9,48.9,47.7,79,76,71,29.75,29.72,9,5,9,0.00
2013-3-6,66.7,57.2,47.8,27.7,17.5,3.4,42,24,10,29.94,29.74,21,8,21,0.00
2013-3-7,66.9,52.6,40.3,43.8,29.3,16.8,78,45,15,30.03,29.91,14,4,14,0.00
2013-3-8,74.1,57.7,44.6,45.3,32.9,11.4,87,51,10,30.03,29.90,14,2,14,0.00
2013-3-9,71.1,60.6,48.9,51.3,43.4,37.2,88,58,29,30.04,29.93,11,3,11,0.00
2013-3-10,78.1,65.2,53.6,59.5,51.4,42.2,94,65,28,29.99,29.85,8,1,14,0.00
2013-3-11,80.2,67.5,56.1,59.5,53.0,46.6,91,64,32,29.91,29.65,9,1,9,0.00
2013-3-12,74.1,66.8,58.8,67.9,61.9,55.4,96,84,69,29.81,29.63,11,2,11,0.04
2013-3-13,58.6,56.6,55.2,55.4,51.2,46.9,89,82,73,29.83,29.80,9,4,9,0.00
2013-3-15,72.5,62.6,44.6,41.7,24.5,9.7,87,30,10,30.06,29.91,7,1,7,0.00
2013-3-16,77.9,66.7,48.7,47.5,26.2,14.1,90,35,10,29.97,29.79,8,3,8,0.00
2013-3-17,69.6,61.9,52.9,59.7,53.6,20.0,91,76,15,29.92,29.79,4,0,6,0.00
2013-3-18,79.3,73.5,63.5,66.7,62.2,58.6,92,69,49,29.82,29.66,8,1,8,0.02
2013-3-19,86.2,73.1,63.3,66.0,58.4,43.6,100,66,24,29.82,29.65,15,2,15,0.00
2013-3-20,75.9,66.3,59.2,67.5,62.2,58.1,97,87,67,29.78,29.56,16,2,16,0.56
2013-3-21,69.8,59.1,48.6,58.3,33.9,6.5,100,51,10,29.77,29.65,14,5,14,0.01
2013-3-22,79.0,62.0,47.5,57.8,42.8,27.9,86,57,16,29.81,29.67,8,1,8,0.01
2013-3-23,85.5,72.3,61.9,73.5,64.4,57.0,100,78,49,29.77,29.52,11,1,11,0.01
2013-3-24,80.4,72.6,67.8,73.8,68.9,63.9,97,88,73,29.62,29.36,17,3,17,0.11
2013-3-25,70.9,64.1,56.1,65.3,35.7,9.7,94,45,10,29.82,29.47,17,6,17,0.00
2013-3-26,57.0,55.6,52.5,32.3,20.7,11.3,39,26,18,29.85,29.81,14,8,14,0.00
2013-4-20,58.5,58.1,57.7,56.8,56.4,56.0,94,94,93,29.95,29.88,11,7,11,0.58